Time;durP1;ratioP1;P1;durP2;ratioP2;P2;SDS_P1;SDS_P2;PMS_P1;PMS_P2;Temp;Humidity;BMP_temperature;BMP_pressure;BME280_temperature;BME280_humidity;BME280_pressure;Samples;Min_cycle;Max_cycle;Signal;HPM_P1;HPM_P2
2023/12/17 00:01:08;;;;;;;10.45;9.18;;;11.00;99.90;;;;;;5077990;28;20037;-67
2023/12/17 00:03:33;;;;;;;11.15;8.82;;;11.00;99.90;;;;;;5078076;28;20024;-67
2023/12/17 00:05:59;;;;;;;12.55;9.40;;;10.70;99.90;;;;;;5078705;28;20027;-67
2023/12/17 00:08:25;;;;;;;12.98;9.18;;;10.60;99.90;;;;;;5078735;28;20028;-67
2023/12/17 00:10:52;;;;;;;11.80;9.30;;;10.60;99.90;;;;;;5078644;28;20358;-68
2023/12/17 00:13:18;;;;;;;13.38;10.13;;;10.60;99.90;;;;;;5078565;28;20260;-67
2023/12/17 00:15:45;;;;;;;11.57;8.95;;;10.70;99.90;;;;;;5077775;28;20043;-68
2023/12/17 00:18:11;;;;;;;13.75;9.93;;;10.70;99.90;;;;;;5078457;28;20296;-68
2023/12/17 00:20:38;;;;;;;12.32;9.45;;;10.70;99.90;;;;;;5094526;28;20048;-67
2023/12/17 00:23:04;;;;;;;14.27;9.98;;;10.80;99.90;;;;;;5078280;28;20040;-68
2023/12/17 00:25:31;;;;;;;13.88;10.05;;;10.80;99.90;;;;;;5078364;28;20116;-66
2023/12/17 00:27:57;;;;;;;12.77;10.13;;;10.80;99.90;;;;;;5078343;28;20048;-66
2023/12/17 00:30:23;;;;;;;11.27;9.13;;;10.80;99.90;;;;;;5078117;28;20427;-67
2023/12/17 00:32:49;;;;;;;11.10;8.90;;;10.90;99.90;;;;;;5078276;28;20056;-66
2023/12/17 00:35:15;;;;;;;10.82;9.15;;;10.80;99.90;;;;;;5078114;28;20036;-67
2023/12/17 00:37:41;;;;;;;13.77;8.82;;;10.70;99.90;;;;;;5077299;28;20075;-66
2023/12/17 00:40:07;;;;;;;12.38;8.88;;;10.80;99.90;;;;;;5078049;28;20040;-67
2023/12/17 00:42:33;;;;;;;10.40;9.02;;;10.80;99.90;;;;;;5077129;28;20392;-67
2023/12/17 00:44:59;;;;;;;11.40;8.93;;;10.90;99.90;;;;;;5077041;28;20036;-66
2023/12/17 00:47:25;;;;;;;14.20;9.10;;;10.80;99.90;;;;;;5077861;28;20032;-66
2023/12/17 00:49:52;;;;;;;11.98;8.88;;;10.90;99.90;;;;;;5077004;28;20122;-66
2023/12/17 00:52:20;;;;;;;12.10;9.38;;;10.90;99.90;;;;;;5077779;28;20039;-66
2023/12/17 00:54:46;;;;;;;13.68;8.93;;;10.70;99.90;;;;;;5093720;28;20035;-66
2023/12/17 00:57:12;;;;;;;13.52;8.65;;;10.70;99.90;;;;;;5093695;28;20229;-67
2023/12/17 00:59:38;;;;;;;10.90;8.63;;;10.70;99.90;;;;;;5077728;28;20475;-67
2023/12/17 01:02:04;;;;;;;13.73;8.80;;;10.80;99.90;;;;;;5077357;28;20042;-66
2023/12/17 01:04:29;;;;;;;11.95;8.50;;;10.70;99.90;;;;;;5076867;28;20139;-69
2023/12/17 01:06:55;;;;;;;13.10;8.38;;;10.70;99.90;;;;;;5077570;28;20025;-68
2023/12/17 01:09:21;;;;;;;11.73;8.30;;;10.60;99.90;;;;;;5077546;28;20025;-68
2023/12/17 01:11:47;;;;;;;12.20;9.20;;;10.60;99.90;;;;;;5077583;28;20039;-68
2023/12/17 01:14:12;;;;;;;12.70;8.23;;;10.70;99.90;;;;;;5093657;28;20032;-68
2023/12/17 01:16:38;;;;;;;12.75;8.82;;;10.70;99.90;;;;;;5077432;28;20040;-67
2023/12/17 01:19:04;;;;;;;12.93;9.25;;;10.70;99.90;;;;;;5077408;28;20033;-68
2023/12/17 01:21:30;;;;;;;13.68;9.27;;;10.50;99.90;;;;;;5077258;28;20416;-68
2023/12/17 01:23:57;;;;;;;11.05;8.27;;;10.50;99.90;;;;;;5093508;28;20032;-68
2023/12/17 01:26:23;;;;;;;11.95;8.68;;;10.50;99.90;;;;;;5077234;28;20029;-68
2023/12/17 01:28:49;;;;;;;11.63;9.15;;;10.40;99.90;;;;;;5077003;28;20063;-68
2023/12/17 01:31:15;;;;;;;13.55;8.90;;;10.50;99.90;;;;;;5077203;28;20081;-67
2023/12/17 01:33:41;;;;;;;12.00;8.95;;;10.40;99.90;;;;;;5077220;28;20111;-68
2023/12/17 01:36:07;;;;;;;11.35;7.88;;;10.50;99.90;;;;;;5077126;28;20032;-68
2023/12/17 01:38:33;;;;;;;12.27;8.50;;;10.50;99.90;;;;;;5077275;28;20033;-68
2023/12/17 01:40:59;;;;;;;13.30;8.63;;;10.50;99.90;;;;;;5093178;28;20047;-68
2023/12/17 01:43:25;;;;;;;11.52;8.63;;;10.40;99.90;;;;;;5077034;28;20036;-68
2023/12/17 01:45:53;;;;;;;10.93;8.05;;;10.40;99.90;;;;;;5076279;28;20090;-67
2023/12/17 01:48:20;;;;;;;9.80;7.72;;;10.30;99.90;;;;;;5076961;28;20036;-68
2023/12/17 01:50:46;;;;;;;12.45;8.00;;;10.10;99.90;;;;;;5077188;28;20107;-67
2023/12/17 01:53:13;;;;;;;11.98;8.55;;;10.20;99.90;;;;;;5092981;28;20028;-70
2023/12/17 01:55:41;;;;;;;10.95;7.95;;;10.20;99.90;;;;;;5076026;28;20060;-67
2023/12/17 01:58:09;;;;;;;13.98;8.13;;;10.30;99.90;;;;;;5092918;28;20060;-68
2023/12/17 02:00:36;;;;;;;9.50;7.07;;;10.20;99.90;;;;;;5076963;28;20025;-68
2023/12/17 02:03:05;;;;;;;11.52;7.90;;;10.20;99.90;;;;;;5076706;28;20021;-68
2023/12/17 02:05:35;;;;;;;11.35;8.05;;;10.20;99.90;;;;;;5076082;28;20292;-68
2023/12/17 02:08:04;;;;;;;11.65;7.80;;;10.30;99.90;;;;;;5076747;28;20032;-68
2023/12/17 02:10:30;;;;;;;11.25;8.73;;;10.10;99.90;;;;;;5076784;28;20353;-69
2023/12/17 02:13:00;;;;;;;13.73;8.98;;;10.00;99.90;;;;;;5076892;28;20032;-68
2023/12/17 02:15:25;;;;;;;13.98;9.68;;;10.00;99.90;;;;;;5080758;28;20020;-68
2023/12/17 02:17:51;;;;;;;18.30;11.10;;;9.90;99.90;;;;;;5080894;28;20040;-68
2023/12/17 02:20:17;;;;;;;16.08;10.40;;;10.00;99.90;;;;;;5080870;28;20029;-69
2023/12/17 02:22:44;;;;;;;17.38;9.82;;;10.20;99.90;;;;;;5080834;28;20112;-70
2023/12/17 02:25:10;;;;;;;15.25;10.02;;;10.30;99.90;;;;;;5080702;28;20040;-67
2023/12/17 02:27:36;;;;;;;12.98;9.25;;;10.30;99.90;;;;;;5096700;28;20024;-67
2023/12/17 02:30:02;;;;;;;14.77;9.25;;;10.20;99.90;;;;;;5080388;28;20358;-67
2023/12/17 02:32:28;;;;;;;14.23;9.90;;;10.10;99.90;;;;;;5080616;28;20025;-67
2023/12/17 02:34:54;;;;;;;11.52;8.88;;;10.10;99.90;;;;;;5080537;28;20291;-67
2023/12/17 02:37:20;;;;;;;16.27;10.57;;;10.10;99.90;;;;;;5080499;28;20020;-67
2023/12/17 02:39:46;;;;;;;22.98;13.18;;;10.00;99.90;;;;;;5079733;28;20036;-67
2023/12/17 02:42:12;;;;;;;19.40;13.25;;;10.00;99.90;;;;;;5079874;28;20063;-68
2023/12/17 02:44:38;;;;;;;24.60;13.88;;;10.00;99.90;;;;;;5079574;28;20123;-67
2023/12/17 02:47:04;;;;;;;20.95;13.15;;;10.00;99.90;;;;;;5080228;28;20040;-67
2023/12/17 02:49:31;;;;;;;21.05;13.70;;;10.00;99.90;;;;;;5079550;28;20047;-66
2023/12/17 02:51:57;;;;;;;19.90;13.10;;;10.00;99.90;;;;;;5080231;28;20115;-67
2023/12/17 02:54:24;;;;;;;18.80;12.65;;;10.20;99.90;;;;;;5080111;28;20071;-67
2023/12/17 02:56:52;;;;;;;22.92;13.20;;;10.20;99.90;;;;;;5079309;28;20090;-67
2023/12/17 02:59:19;;;;;;;19.48;12.93;;;10.20;99.90;;;;;;5079990;28;20435;-68
2023/12/17 03:01:45;;;;;;;21.15;11.93;;;10.10;99.90;;;;;;5079972;28;20044;-67
2023/12/17 03:04:11;;;;;;;18.52;11.93;;;10.00;99.90;;;;;;5079945;28;20028;-67
2023/12/17 03:06:38;;;;;;;17.25;11.82;;;10.10;99.90;;;;;;5079942;28;20035;-67
2023/12/17 03:09:04;;;;;;;18.15;11.20;;;10.00;99.90;;;;;;5079829;28;20130;-68
2023/12/17 03:11:30;;;;;;;18.63;11.48;;;10.10;99.90;;;;;;5079021;28;20036;-66
2023/12/17 03:13:56;;;;;;;14.05;10.40;;;10.10;99.90;;;;;;5079755;28;20074;-68
2023/12/17 03:16:24;;;;;;;16.25;10.65;;;10.20;99.90;;;;;;5078998;28;20169;-67
2023/12/17 03:18:50;;;;;;;14.15;10.75;;;10.40;99.90;;;;;;5079749;28;20024;-68
2023/12/17 03:21:15;;;;;;;18.85;10.82;;;10.30;99.90;;;;;;5078869;28;20105;-68
2023/12/17 03:23:41;;;;;;;14.65;9.98;;;10.20;99.90;;;;;;5079527;28;20021;-68
2023/12/17 03:26:07;;;;;;;13.75;9.48;;;10.20;99.90;;;;;;5079551;28;20071;-68
2023/12/17 03:28:33;;;;;;;14.55;9.65;;;10.20;99.90;;;;;;5079383;28;20057;-67
2023/12/17 03:30:59;;;;;;;14.93;9.95;;;10.10;99.90;;;;;;5078716;28;20040;-66
2023/12/17 03:33:24;;;;;;;16.60;10.60;;;9.90;99.90;;;;;;5079385;28;20052;-69
2023/12/17 03:35:52;;;;;;;20.15;10.90;;;9.70;99.90;;;;;;5078663;28;20040;-67
2023/12/17 03:38:18;;;;;;;13.15;9.38;;;9.60;99.90;;;;;;5079321;28;20451;-67
2023/12/17 03:40:44;;;;;;;15.98;10.20;;;9.60;99.90;;;;;;5078779;28;20070;-67
2023/12/17 03:43:10;;;;;;;16.58;10.73;;;9.60;99.90;;;;;;5078421;28;20061;-67
2023/12/17 03:45:36;;;;;;;13.57;10.07;;;9.60;99.90;;;;;;5079305;28;20145;-67
2023/12/17 03:48:02;;;;;;;17.08;10.60;;;9.70;99.90;;;;;;5078788;28;20041;-68
2023/12/17 03:50:28;;;;;;;14.70;10.30;;;9.70;99.90;;;;;;5079598;28;20461;-67
2023/12/17 03:52:54;;;;;;;15.73;10.30;;;9.80;99.90;;;;;;5078429;28;20028;-68
2023/12/17 03:55:20;;;;;;;17.17;9.95;;;9.70;99.90;;;;;;5079003;28;20028;-67
2023/12/17 03:57:47;;;;;;;15.32;10.32;;;9.50;99.90;;;;;;5079015;28;20036;-67
2023/12/17 04:00:13;;;;;;;16.52;10.82;;;9.40;99.90;;;;;;5078996;28;20277;-67
2023/12/17 04:02:39;;;;;;;17.67;10.65;;;9.40;99.90;;;;;;5078866;28;20048;-69
2023/12/17 04:05:06;;;;;;;17.80;10.38;;;9.50;99.90;;;;;;5078952;28;20024;-68
2023/12/17 04:07:32;;;;;;;15.57;10.73;;;9.50;99.90;;;;;;5078032;28;20115;-69
2023/12/17 04:10:00;;;;;;;18.92;9.93;;;9.40;99.90;;;;;;5078044;28;20052;-68
2023/12/17 04:12:26;;;;;;;14.73;9.90;;;9.40;99.90;;;;;;5078762;28;20109;-69
2023/12/17 04:14:52;;;;;;;15.88;9.77;;;9.40;99.90;;;;;;5078627;28;20101;-68
2023/12/17 04:17:18;;;;;;;17.02;9.63;;;9.40;99.90;;;;;;5078609;28;20029;-68
2023/12/17 04:19:44;;;;;;;15.07;9.50;;;9.30;99.90;;;;;;5078599;28;20350;-69
2023/12/17 04:22:09;;;;;;;18.05;9.40;;;9.40;99.90;;;;;;5078422;28;20347;-69
2023/12/17 04:24:35;;;;;;;14.52;8.93;;;9.50;99.90;;;;;;5077680;28;20047;-68
2023/12/17 04:27:01;;;;;;;17.23;9.43;;;9.40;99.90;;;;;;5077645;28;20123;-68
2023/12/17 04:29:27;;;;;;;13.95;9.00;;;9.30;99.90;;;;;;5078154;28;20064;-69
2023/12/17 04:31:52;;;;;;;12.88;8.68;;;9.20;99.90;;;;;;5078366;28;20040;-68
2023/12/17 04:34:18;;;;;;;17.35;9.05;;;9.20;99.90;;;;;;5078173;28;20056;-68
2023/12/17 04:36:44;;;;;;;15.05;9.23;;;9.30;99.90;;;;;;5093838;28;20043;-68
2023/12/17 04:39:10;;;;;;;15.20;9.07;;;9.30;99.90;;;;;;5078102;28;20028;-68
2023/12/17 04:41:37;;;;;;;17.67;9.88;;;9.40;99.90;;;;;;5078071;28;20384;-69
2023/12/17 04:44:03;;;;;;;15.05;8.80;;;9.40;99.90;;;;;;5078118;28;20304;-68
2023/12/17 04:46:30;;;;;;;14.40;9.68;;;9.30;99.90;;;;;;5078036;28;20029;-68
2023/12/17 04:48:56;;;;;;;14.18;9.77;;;9.30;99.90;;;;;;5077934;28;20025;-69
2023/12/17 04:51:22;;;;;;;16.52;9.85;;;9.30;99.90;;;;;;5077903;28;20071;-70
2023/12/17 04:53:48;;;;;;;19.08;10.68;;;9.20;99.90;;;;;;5077354;28;20106;-69
2023/12/17 04:56:15;;;;;;;19.80;11.00;;;9.20;99.90;;;;;;5093996;28;20032;-69
2023/12/17 04:58:41;;;;;;;18.65;11.07;;;9.20;99.90;;;;;;5077730;28;20051;-68
2023/12/17 05:01:06;;;;;;;18.92;11.23;;;9.10;99.90;;;;;;5077689;28;20024;-68
2023/12/17 05:03:32;;;;;;;17.10;10.45;;;9.10;99.90;;;;;;5077674;28;20036;-69
2023/12/17 05:05:58;;;;;;;14.85;9.90;;;9.10;99.90;;;;;;5077654;28;20323;-69
2023/12/17 05:08:24;;;;;;;14.50;9.45;;;9.00;99.90;;;;;;5077633;28;20300;-69
2023/12/17 05:10:50;;;;;;;15.73;9.43;;;9.00;99.90;;;;;;5077632;28;20052;-69
2023/12/17 05:13:16;;;;;;;14.90;9.23;;;9.00;99.90;;;;;;5076739;28;20055;-70
2023/12/17 05:15:42;;;;;;;14.63;8.57;;;9.10;99.90;;;;;;5060068;28;20028;-69
2023/12/17 05:18:07;;;;;;;12.70;8.50;;;9.10;99.90;;;;;;5076681;28;20094;-70
2023/12/17 05:20:33;;;;;;;13.57;8.32;;;9.00;99.90;;;;;;5076932;28;20037;-68
2023/12/17 05:22:59;;;;;;;12.10;7.78;;;9.10;99.90;;;;;;5093430;28;20056;-69
2023/12/17 05:25:25;;;;;;;12.73;7.82;;;9.00;99.90;;;;;;5077627;28;20017;-69
2023/12/17 05:27:51;;;;;;;11.10;7.13;;;9.10;99.90;;;;;;5093450;28;20303;-68
2023/12/17 05:30:17;;;;;;;12.82;7.95;;;9.10;99.90;;;;;;5076448;28;20050;-68
2023/12/17 05:32:42;;;;;;;12.55;7.50;;;9.30;99.90;;;;;;5076428;28;20121;-69
2023/12/17 05:35:09;;;;;;;12.07;7.95;;;9.40;99.90;;;;;;5076477;28;20121;-69
2023/12/17 05:37:34;;;;;;;12.35;7.90;;;9.50;99.90;;;;;;5077229;28;20162;-69
2023/12/17 05:40:01;;;;;;;12.48;7.45;;;9.30;99.90;;;;;;5076282;28;20455;-69
2023/12/17 05:42:26;;;;;;;15.50;8.48;;;9.30;99.90;;;;;;5077014;28;20107;-69
2023/12/17 05:44:52;;;;;;;12.77;8.15;;;9.40;99.90;;;;;;5093226;28;20166;-69
2023/12/17 05:47:18;;;;;;;14.75;8.55;;;9.50;99.90;;;;;;5076901;28;20428;-68
2023/12/17 05:49:44;;;;;;;13.38;9.18;;;9.70;99.90;;;;;;5076418;28;20121;-68
2023/12/17 05:52:10;;;;;;;15.25;8.48;;;9.60;99.90;;;;;;5076219;28;20040;-68
2023/12/17 05:54:38;;;;;;;16.33;9.43;;;9.50;99.90;;;;;;5076158;28;20460;-68
2023/12/17 05:57:05;;;;;;;14.70;8.27;;;9.30;99.90;;;;;;5059447;28;20032;-69
2023/12/17 05:59:30;;;;;;;15.00;8.57;;;9.20;99.90;;;;;;5076134;28;20032;-68
2023/12/17 06:01:56;;;;;;;16.63;9.57;;;9.00;99.90;;;;;;5076070;28;20048;-69
2023/12/17 06:04:22;;;;;;;20.65;11.20;;;8.90;99.90;;;;;;5076121;28;20028;-69
2023/12/17 06:06:48;;;;;;;19.58;11.50;;;8.90;99.90;;;;;;5092943;28;20454;-69
2023/12/17 06:09:14;;;;;;;20.40;11.15;;;9.00;99.90;;;;;;5076558;28;20032;-68
2023/12/17 06:11:41;;;;;;;20.00;10.95;;;8.90;99.90;;;;;;5076168;28;20032;-69
2023/12/17 06:14:07;;;;;;;18.45;10.35;;;9.00;99.90;;;;;;5092493;28;20296;-68
2023/12/17 06:16:33;;;;;;;20.55;10.90;;;9.10;99.90;;;;;;5092975;28;20154;-67
2023/12/17 06:18:58;;;;;;;24.05;12.18;;;9.00;99.90;;;;;;5075803;28;20040;-67
2023/12/17 06:21:26;;;;;;;19.63;11.55;;;8.90;99.90;;;;;;5092729;28;20367;-68
2023/12/17 06:23:57;;;;;;;20.45;11.85;;;8.90;99.90;;;;;;5076536;28;20059;-68
2023/12/17 06:26:24;;;;;;;24.88;12.60;;;9.00;99.90;;;;;;5076539;28;20036;-67
2023/12/17 06:28:50;;;;;;;22.00;12.88;;;9.10;99.90;;;;;;5076298;28;20059;-67
2023/12/17 06:31:16;;;;;;;25.42;13.00;;;9.10;99.90;;;;;;5076523;28;20033;-69
2023/12/17 06:33:42;;;;;;;23.52;13.90;;;9.00;99.90;;;;;;5075708;28;20025;-68
2023/12/17 06:36:08;;;;;;;22.17;12.50;;;8.90;99.90;;;;;;5075722;28;20040;-69
2023/12/17 06:38:34;;;;;;;18.60;11.45;;;8.90;99.90;;;;;;5076621;28;20103;-69
2023/12/17 06:41:00;;;;;;;17.98;11.38;;;8.90;99.90;;;;;;5076427;28;20170;-67
2023/12/17 06:43:26;;;;;;;16.15;10.02;;;8.80;99.90;;;;;;5075650;28;20067;-68
2023/12/17 06:45:52;;;;;;;16.83;10.98;;;8.60;99.90;;;;;;5075720;28;20059;-70
2023/12/17 06:48:18;;;;;;;17.48;10.95;;;8.40;99.90;;;;;;5075514;28;20024;-68
2023/12/17 06:50:44;;;;;;;15.75;10.43;;;8.40;99.90;;;;;;5092511;28;20082;-71
2023/12/17 06:53:15;;;;;;;18.45;11.38;;;8.40;99.90;;;;;;5076297;28;20028;-68
2023/12/17 06:55:42;;;;;;;18.00;10.73;;;8.50;99.90;;;;;;5059159;28;20414;-67
2023/12/17 06:58:08;;;;;;;18.23;11.00;;;8.40;99.90;;;;;;5076162;28;20024;-70
2023/12/17 07:00:34;;;;;;;20.25;11.68;;;8.30;99.90;;;;;;5077757;28;20354;-68
2023/12/17 07:03:01;;;;;;;20.65;11.35;;;8.40;99.90;;;;;;5079757;28;20036;-69
2023/12/17 07:05:27;;;;;;;18.73;10.70;;;8.40;99.90;;;;;;5079969;28;20116;-70
2023/12/17 07:07:53;;;;;;;20.42;11.02;;;8.30;99.90;;;;;;5079013;28;20056;-68
2023/12/17 07:10:20;;;;;;;21.42;11.13;;;8.30;99.90;;;;;;5080324;28;20037;-70
2023/12/17 07:12:47;;;;;;;18.70;11.48;;;8.30;99.90;;;;;;5062381;28;20056;-69
2023/12/17 07:15:13;;;;;;;19.10;11.40;;;8.30;99.90;;;;;;5079124;28;20033;-68
2023/12/17 07:17:38;;;;;;;24.23;13.23;;;8.30;99.90;;;;;;5079944;28;20020;-69
2023/12/17 07:20:05;;;;;;;24.83;13.73;;;8.30;99.90;;;;;;5079687;28;20047;-69
2023/12/17 07:22:31;;;;;;;26.45;15.15;;;8.30;99.90;;;;;;5079541;28;20335;-68
2023/12/17 07:24:57;;;;;;;32.80;16.02;;;8.30;99.90;;;;;;5095660;28;20032;-68
2023/12/17 07:27:23;;;;;;;30.52;16.67;;;8.20;99.90;;;;;;5079538;28;20037;-69
2023/12/17 07:29:48;;;;;;;34.35;16.77;;;8.20;99.90;;;;;;5079379;28;20127;-69
2023/12/17 07:32:14;;;;;;;31.55;17.48;;;8.20;99.90;;;;;;5079526;28;20037;-70
2023/12/17 07:34:40;;;;;;;30.13;17.10;;;8.20;99.90;;;;;;5078618;28;20037;-69
2023/12/17 07:37:05;;;;;;;32.20;17.95;;;8.20;99.90;;;;;;5079429;28;20029;-69
2023/12/17 07:39:31;;;;;;;27.58;16.58;;;8.30;99.90;;;;;;5095708;28;20036;-69
2023/12/17 07:41:57;;;;;;;34.28;18.48;;;8.40;99.90;;;;;;5078536;28;20399;-69
2023/12/17 07:44:25;;;;;;;39.17;18.52;;;8.30;99.90;;;;;;5079250;28;20119;-69
2023/12/17 07:46:51;;;;;;;31.92;18.88;;;8.30;99.90;;;;;;5079188;28;20040;-69
2023/12/17 07:49:17;;;;;;;29.25;18.30;;;8.20;99.90;;;;;;5078406;28;20033;-70
2023/12/17 07:51:44;;;;;;;34.25;17.88;;;8.20;99.90;;;;;;5095261;28;20024;-71
2023/12/17 07:54:10;;;;;;;28.98;16.85;;;8.10;99.90;;;;;;5078993;28;20127;-71
2023/12/17 07:56:35;;;;;;;33.00;17.10;;;8.10;99.90;;;;;;5094906;28;20123;-69
2023/12/17 07:59:01;;;;;;;33.92;17.70;;;8.10;99.90;;;;;;5077918;28;20303;-71
2023/12/17 08:01:31;;;;;;;28.55;16.08;;;8.20;99.90;;;;;;5077959;28;20032;-69
2023/12/17 08:03:57;;;;;;;26.05;15.45;;;8.20;99.90;;;;;;5078029;28;20060;-67
2023/12/17 08:06:26;;;;;;;25.15;15.65;;;8.20;99.90;;;;;;5078067;28;20028;-68
2023/12/17 08:08:53;;;;;;;26.50;15.20;;;8.30;99.90;;;;;;5077477;28;20067;-71
2023/12/17 08:11:20;;;;;;;28.40;15.27;;;8.30;99.90;;;;;;5077620;28;20032;-68
2023/12/17 08:13:46;;;;;;;30.05;16.10;;;8.30;99.90;;;;;;5094631;28;20389;-68
2023/12/17 08:16:12;;;;;;;29.10;15.93;;;8.30;99.90;;;;;;5078368;28;20291;-70
2023/12/17 08:18:38;;;;;;;30.13;15.63;;;8.40;99.90;;;;;;5078525;28;20025;-71
2023/12/17 08:21:04;;;;;;;35.38;15.98;;;8.40;99.90;;;;;;5078473;28;20284;-70
2023/12/17 08:23:30;;;;;;;28.05;15.27;;;8.30;99.90;;;;;;5078390;28;20105;-70
2023/12/17 08:25:56;;;;;;;27.63;14.73;;;8.20;99.90;;;;;;5078396;28;20030;-70
2023/12/17 08:28:23;;;;;;;31.30;14.98;;;8.20;99.90;;;;;;5077441;28;20111;-68
2023/12/17 08:30:49;;;;;;;25.10;13.65;;;8.20;99.90;;;;;;5078402;28;20036;-69
2023/12/17 08:33:16;;;;;;;20.08;11.65;;;8.10;99.90;;;;;;5078294;28;20044;-69
2023/12/17 08:35:43;;;;;;;24.10;12.13;;;8.10;99.90;;;;;;5078281;28;20354;-71
2023/12/17 08:38:10;;;;;;;23.50;12.27;;;7.90;99.90;;;;;;5078170;28;20032;-73
2023/12/17 08:40:37;;;;;;;25.33;12.95;;;7.80;99.90;;;;;;5077471;28;20056;-70
2023/12/17 08:43:07;;;;;;;24.40;12.55;;;7.80;99.90;;;;;;5077879;28;20033;-70
2023/12/17 08:45:34;;;;;;;26.63;12.20;;;7.90;99.90;;;;;;5078082;28;20461;-69
2023/12/17 08:48:00;;;;;;;24.42;12.18;;;8.00;99.90;;;;;;5077233;28;20032;-68
2023/12/17 08:50:26;;;;;;;28.52;13.05;;;8.10;99.90;;;;;;5077982;28;20035;-68
2023/12/17 08:52:52;;;;;;;27.55;12.15;;;8.10;99.90;;;;;;5077954;28;20032;-68
2023/12/17 08:55:19;;;;;;;22.35;11.48;;;8.30;99.90;;;;;;5060566;28;20040;-71
2023/12/17 08:57:49;;;;;;;25.15;12.57;;;8.20;99.90;;;;;;5077787;28;20032;-69
2023/12/17 09:00:18;;;;;;;27.08;11.90;;;8.20;99.90;;;;;;5077822;28;20119;-69
2023/12/17 09:02:43;;;;;;;24.58;10.95;;;8.20;99.90;;;;;;5077527;28;20055;-69
2023/12/17 09:05:09;;;;;;;27.20;11.68;;;8.30;99.90;;;;;;5077682;28;20040;-68
2023/12/17 09:07:38;;;;;;;26.35;11.77;;;8.30;99.90;;;;;;5077805;28;20169;-71
2023/12/17 09:10:05;;;;;;;28.52;11.38;;;8.20;99.90;;;;;;5077646;28;20029;-71
2023/12/17 09:12:31;;;;;;;29.08;12.13;;;8.10;99.90;;;;;;5076703;28;20406;-70
2023/12/17 09:14:56;;;;;;;24.27;12.10;;;7.90;99.90;;;;;;5076878;28;20111;-70
2023/12/17 09:17:24;;;;;;;29.50;13.48;;;7.70;99.90;;;;;;5093563;28;20403;-70
2023/12/17 09:19:50;;;;;;;28.02;13.60;;;7.70;99.90;;;;;;5076717;28;20048;-70
2023/12/17 09:22:17;;;;;;;29.42;13.23;;;7.70;99.90;;;;;;5059676;28;20312;-69
2023/12/17 09:24:43;;;;;;;34.45;13.25;;;7.80;99.90;;;;;;5077267;28;20048;-71
2023/12/17 09:27:08;;;;;;;31.92;13.35;;;7.90;99.90;;;;;;5077211;28;20404;-68
2023/12/17 09:29:34;;;;;;;30.23;12.77;;;7.80;99.90;;;;;;5076972;28;20315;-70
2023/12/17 09:32:00;;;;;;;26.52;12.35;;;7.90;99.90;;;;;;5077246;28;20075;-70
2023/12/17 09:34:26;;;;;;;23.80;11.38;;;7.90;99.90;;;;;;5059726;28;20052;-69
2023/12/17 09:36:51;;;;;;;23.65;10.63;;;7.80;99.90;;;;;;5059609;28;20040;-69
2023/12/17 09:39:17;;;;;;;23.77;10.57;;;7.70;99.90;;;;;;5093121;28;20067;-69
2023/12/17 09:41:43;;;;;;;24.50;10.60;;;7.70;99.90;;;;;;5092714;28;20295;-69
2023/12/17 09:44:09;;;;;;;20.17;9.80;;;7.70;99.90;;;;;;5077017;28;20028;-68
2023/12/17 09:46:35;;;;;;;20.50;10.13;;;7.70;99.90;;;;;;5076903;28;20029;-69
2023/12/17 09:49:01;;;;;;;23.85;10.25;;;7.90;99.90;;;;;;5092726;28;20036;-69
2023/12/17 09:51:28;;;;;;;22.73;8.95;;;8.10;99.90;;;;;;5092795;28;20315;-69
2023/12/17 09:53:56;;;;;;;17.05;8.55;;;8.20;99.90;;;;;;5076729;28;20025;-70
2023/12/17 09:56:22;;;;;;;18.02;8.63;;;8.10;99.90;;;;;;5075816;28;20043;-70
2023/12/17 09:58:48;;;;;;;19.95;8.93;;;8.10;99.90;;;;;;5092720;28;20024;-69
2023/12/17 10:01:13;;;;;;;18.58;8.45;;;8.20;99.90;;;;;;5076455;28;20025;-69
2023/12/17 10:03:40;;;;;;;20.13;8.30;;;8.30;99.90;;;;;;5075845;28;20303;-68
2023/12/17 10:06:06;;;;;;;17.55;8.07;;;8.40;99.90;;;;;;5075846;28;20043;-70
2023/12/17 10:08:33;;;;;;;18.80;8.35;;;8.60;99.90;;;;;;5076588;28;20052;-68
2023/12/17 10:10:59;;;;;;;20.65;8.18;;;8.70;99.90;;;;;;5076721;28;20031;-70
2023/12/17 10:13:26;;;;;;;20.10;7.95;;;8.90;99.90;;;;;;5076526;28;20365;-64
2023/12/17 10:15:54;;;;;;;15.48;7.90;;;8.80;99.90;;;;;;5076694;28;20039;-69
2023/12/17 10:18:21;;;;;;;18.33;8.02;;;8.90;99.90;;;;;;5076598;28;20315;-69
2023/12/17 10:20:48;;;;;;;18.67;7.75;;;9.10;99.90;;;;;;5076587;28;20392;-69
2023/12/17 10:23:14;;;;;;;22.00;7.82;;;8.90;99.90;;;;;;5076419;28;20036;-70
2023/12/17 10:25:42;;;;;;;21.02;7.30;;;9.10;99.90;;;;;;5076373;28;20043;-69
2023/12/17 10:28:10;;;;;;;17.02;7.53;;;9.20;99.90;;;;;;5076206;28;20036;-69
2023/12/17 10:30:36;;;;;;;16.35;7.03;;;9.30;99.90;;;;;;5076758;28;20029;-69
2023/12/17 10:33:05;;;;;;;15.73;6.80;;;9.30;99.90;;;;;;5076428;28;20079;-69
2023/12/17 10:35:32;;;;;;;18.65;7.68;;;9.20;99.90;;;;;;5078845;28;20299;-69
2023/12/17 10:38:00;;;;;;;16.08;7.35;;;9.10;99.90;;;;;;5080488;28;20112;-67
2023/12/17 10:40:27;;;;;;;13.68;6.70;;;9.30;99.90;;;;;;5080407;28;20391;-68
2023/12/17 10:42:56;;;;;;;19.58;6.90;;;9.50;99.90;;;;;;5080205;28;20029;-69
2023/12/17 10:45:22;;;;;;;16.65;6.68;;;9.50;99.90;;;;;;5080291;28;20406;-67
2023/12/17 10:47:56;;;;;;;13.82;6.68;;;9.40;99.90;;;;;;5080323;28;20029;-67
2023/12/17 10:50:26;;;;;;;16.95;6.47;;;9.40;99.90;;;;;;5080278;28;20033;-68
2023/12/17 10:52:53;;;;;;;15.85;6.32;;;9.80;99.90;;;;;;5062702;28;20036;-69
2023/12/17 10:55:20;;;;;;;17.17;6.88;;;10.20;96.60;;;;;;5080171;28;20094;-69
2023/12/17 10:57:52;;;;;;;13.00;5.93;;;10.10;94.00;;;;;;5096039;28;20037;-69
2023/12/17 11:00:23;;;;;;;14.80;6.45;;;10.00;99.90;;;;;;5080085;28;20411;-68
2023/12/17 11:02:52;;;;;;;13.20;6.32;;;10.00;99.90;;;;;;5079040;28;20044;-67
2023/12/17 11:05:18;;;;;;;16.08;6.63;;;9.80;99.90;;;;;;5079991;28;20329;-68
2023/12/17 11:07:44;;;;;;;15.43;6.65;;;9.80;99.90;;;;;;5096011;28;20186;-67
2023/12/17 11:10:13;;;;;;;13.13;6.15;;;9.90;99.90;;;;;;5079045;28;20043;-68
2023/12/17 11:12:44;;;;;;;14.02;5.72;;;10.10;99.40;;;;;;5095541;28;20042;-67
2023/12/17 11:15:19;;;;;;;15.40;5.70;;;10.20;96.30;;;;;;5079716;28;20051;-66
2023/12/17 11:17:46;;;;;;;12.52;5.57;;;10.20;91.90;;;;;;5080048;28;20396;-67
2023/12/17 11:20:11;;;;;;;19.52;5.57;;;10.50;88.90;;;;;;5079644;28;20040;-67
2023/12/17 11:22:38;;;;;;;14.70;5.68;;;10.50;75.30;;;;;;5079613;28;20039;-72
2023/12/17 11:25:09;;;;;;;11.48;4.90;;;10.40;64.00;;;;;;5079541;28;20039;-68
2023/12/17 11:27:36;;;;;;;16.92;5.22;;;10.10;76.70;;;;;;5079772;28;20284;-67
2023/12/17 11:30:03;;;;;;;13.00;5.07;;;9.90;87.60;;;;;;5095413;28;20060;-68
2023/12/17 11:32:30;;;;;;;18.00;5.55;;;10.00;91.20;;;;;;5061884;28;20296;-69
2023/12/17 11:34:57;;;;;;;13.85;4.90;;;9.80;83.40;;;;;;5079460;28;20024;-68
2023/12/17 11:37:29;;;;;;;13.57;4.85;;;9.90;89.60;;;;;;5062260;28;20032;-67
2023/12/17 11:39:54;;;;;;;12.45;4.82;;;10.10;90.20;;;;;;5094885;28;20119;-67
2023/12/17 11:42:21;;;;;;;11.75;5.28;;;10.10;77.20;;;;;;5061666;28;20182;-69
2023/12/17 11:44:48;;;;;;;17.75;5.75;;;10.00;80.20;;;;;;5078444;28;20039;-67
2023/12/17 11:47:16;;;;;;;11.25;4.72;;;10.00;82.30;;;;;;5076821;28;20300;-67
2023/12/17 11:49:45;;;;;;;14.52;4.85;;;10.00;79.00;;;;;;5079103;28;20081;-67
2023/12/17 11:52:16;;;;;;;15.27;5.18;;;10.00;83.90;;;;;;5078214;28;20411;-68
2023/12/17 11:54:45;;;;;;;14.10;5.22;;;10.00;74.00;;;;;;5079065;28;20039;-69
2023/12/17 11:57:22;;;;;;;15.05;4.72;;;10.00;77.70;;;;;;5078815;28;20050;-68
2023/12/17 11:59:50;;;;;;;10.75;4.43;;;10.20;79.10;;;;;;5078079;28;20107;-68
2023/12/17 12:02:20;;;;;;;14.50;4.75;;;10.30;75.10;;;;;;5077774;28;20037;-66
2023/12/17 12:04:46;;;;;;;10.88;4.40;;;10.40;60.00;;;;;;5078903;28;20029;-66
2023/12/17 12:07:17;;;;;;;11.73;4.53;;;10.30;57.90;;;;;;5078619;28;20024;-71
2023/12/17 12:09:44;;;;;;;13.18;4.78;;;10.30;53.70;;;;;;5078561;28;20032;-67
2023/12/17 12:12:24;;;;;;;11.65;4.18;;;10.40;57.50;;;;;;5078596;28;20020;-68
2023/12/17 12:14:51;;;;;;;11.90;3.92;;;10.30;56.70;;;;;;5078136;28;20461;-65
2023/12/17 12:17:39;;;;;;;13.85;4.53;;;10.40;58.70;;;;;;5078520;28;20115;-67
2023/12/17 12:20:06;;;;;;;10.95;5.20;;;10.50;55.00;;;;;;5077840;28;20299;-66
2023/12/17 12:22:32;;;;;;;12.88;4.68;;;10.50;56.30;;;;;;5077610;28;20044;-70
2023/12/17 12:24:58;;;;;;;11.05;4.85;;;10.60;54.40;;;;;;5060903;28;20086;-68
2023/12/17 12:27:24;;;;;;;11.05;4.68;;;10.50;53.90;;;;;;5077568;28;20055;-68
2023/12/17 12:29:52;;;;;;;10.75;4.20;;;10.50;52.00;;;;;;5094234;28;20289;-68
2023/12/17 12:32:27;;;;;;;12.95;4.80;;;10.60;58.00;;;;;;5077245;28;20036;-69
2023/12/17 12:34:53;;;;;;;12.15;4.93;;;10.60;42.70;;;;;;5077624;28;20090;-67